createdAt,value
2022-08-11T00:02:30.744Z,97994.13
2022-08-11T00:05:03.876Z,97994.59
2022-08-11T00:07:31.039Z,97990.13
2022-08-11T00:09:59.329Z,97996.09
2022-08-11T00:12:26.321Z,97992.00
2022-08-11T00:14:59.280Z,97999.13
2022-08-11T00:17:31.729Z,97992.13
2022-08-11T00:20:12.685Z,97992.69
2022-08-11T00:22:44.012Z,97996.06
2022-08-11T00:25:12.520Z,97994.81
2022-08-11T00:27:40.586Z,97999.47
2022-08-11T00:30:11.165Z,97997.47
2022-08-11T00:32:39.502Z,98003.56
2022-08-11T00:35:55.938Z,98003.88
2022-08-11T00:37:58.468Z,98000.28
2022-08-11T00:40:34.086Z,98012.28
2022-08-11T00:43:20.691Z,98003.44
2022-08-11T00:46:09.139Z,98009.97
2022-08-11T00:48:45.373Z,98007.97
2022-08-11T00:51:20.354Z,98010.16
2022-08-11T00:54:02.665Z,98015.84
2022-08-11T00:57:04.647Z,98007.31
2022-08-11T01:00:13.613Z,98010.06
2022-08-11T01:02:59.819Z,98014.41
2022-08-11T01:05:45.952Z,98012.97
2022-08-11T01:08:41.027Z,98013.53
2022-08-11T01:11:55.967Z,98007.91
2022-08-11T01:15:04.103Z,98000.63
2022-08-11T01:18:03.289Z,98006.47
2022-08-11T01:21:05.556Z,98004.06
2022-08-11T01:24:29.293Z,98002.66
2022-08-11T01:27:22.037Z,98005.16
2022-08-11T01:30:10.137Z,97994.53
2022-08-11T01:33:24.417Z,98002.34
2022-08-11T01:36:35.315Z,98009.19
2022-08-11T01:39:32.822Z,98013.53
2022-08-11T01:42:26.734Z,98009.75
2022-08-11T01:45:06.327Z,98000.25
2022-08-11T01:47:37.938Z,97998.97
2022-08-11T01:50:30.704Z,97996.56
2022-08-11T01:53:16.000Z,97994.44
2022-08-11T01:56:00.697Z,97996.75
2022-08-11T01:58:43.764Z,97997.91
2022-08-11T02:01:31.260Z,97996.66
2022-08-11T02:04:18.813Z,98002.31
2022-08-11T02:06:51.959Z,97989.16
2022-08-11T02:09:30.005Z,97985.25
2022-08-11T02:12:16.060Z,97997.41
2022-08-11T02:15:05.062Z,97996.59
2022-08-11T02:17:48.607Z,97996.44
2022-08-11T02:20:22.452Z,97993.50
2022-08-11T02:22:52.572Z,97994.66
2022-08-11T02:25:27.211Z,97995.88
2022-08-11T02:28:02.446Z,97993.09
2022-08-11T02:30:41.748Z,97998.56
2022-08-11T02:33:22.050Z,97992.47
2022-08-11T02:35:57.615Z,97985.59
2022-08-11T02:38:30.593Z,97980.81
2022-08-11T02:41:05.848Z,97985.44
2022-08-11T02:43:50.887Z,97987.38
2022-08-11T02:46:28.834Z,97984.28
2022-08-11T02:49:05.118Z,97992.59
2022-08-11T02:51:42.275Z,97989.81
2022-08-11T02:54:15.309Z,97989.16
2022-08-11T02:56:51.145Z,97986.22
2022-08-11T02:59:28.941Z,97981.59
2022-08-11T03:02:19.684Z,97988.66
2022-08-11T03:04:58.975Z,97982.25
2022-08-11T03:07:31.006Z,97980.28
2022-08-11T03:10:04.021Z,97988.66
2022-08-11T03:12:40.596Z,97995.38
2022-08-11T03:15:13.122Z,97984.50
2022-08-11T03:17:49.019Z,97987.25
2022-08-11T03:20:33.461Z,97991.34
2022-08-11T03:23:19.699Z,97990.53
2022-08-11T03:25:55.144Z,97992.28
2022-08-11T03:28:29.369Z,97988.00
2022-08-11T03:31:10.341Z,97987.81
2022-08-11T03:33:43.891Z,97988.09
2022-08-11T03:36:22.689Z,97987.59
2022-08-11T03:39:00.966Z,97989.38
2022-08-11T03:42:02.563Z,97988.88
2022-08-11T03:44:43.376Z,97987.75
2022-08-11T03:47:28.437Z,97984.22
2022-08-11T03:50:17.181Z,97981.66
2022-08-11T03:52:53.711Z,97988.72
2022-08-11T03:55:30.693Z,97977.94
2022-08-11T03:58:26.586Z,97980.88
2022-08-11T04:01:38.206Z,97986.31
2022-08-11T04:04:45.418Z,97976.97
2022-08-11T04:07:57.801Z,97985.22
2022-08-11T04:10:54.555Z,97990.13
2022-08-11T04:13:57.461Z,97990.19
2022-08-11T04:16:42.803Z,97996.75
2022-08-11T04:19:51.110Z,97992.47
2022-08-11T04:22:52.299Z,97985.22
2022-08-11T04:25:57.982Z,97982.53
2022-08-11T04:28:50.270Z,97986.06
2022-08-11T04:31:44.124Z,97983.91
2022-08-11T04:34:54.094Z,97987.78
2022-08-11T04:37:43.196Z,97974.09
2022-08-11T04:40:34.130Z,97983.94
2022-08-11T04:43:33.431Z,97979.78
2022-08-11T04:46:26.125Z,97986.13
2022-08-11T04:49:13.785Z,97981.66
2022-08-11T04:52:07.444Z,97991.34
2022-08-11T04:54:53.345Z,97992.97
2022-08-11T04:57:27.700Z,98001.38
2022-08-11T05:00:04.996Z,97995.78
2022-08-11T05:03:14.114Z,97995.91
2022-08-11T05:06:13.756Z,98005.13
2022-08-11T05:09:13.856Z,98001.41
2022-08-11T05:12:22.597Z,98013.78
2022-08-11T05:14:51.794Z,98017.13
2022-08-11T05:17:27.674Z,98015.28
2022-08-11T05:19:54.345Z,98016.28
2022-08-11T05:22:27.054Z,98012.59
2022-08-11T05:25:06.117Z,98013.13
2022-08-11T05:27:38.460Z,98011.28
2022-08-11T05:30:07.934Z,98010.94
2022-08-11T05:32:38.240Z,98007.75
2022-08-11T05:35:07.532Z,98004.03
2022-08-11T05:37:41.298Z,98003.13
2022-08-11T05:40:11.821Z,98004.16
2022-08-11T05:42:43.658Z,98013.81
2022-08-11T05:45:15.762Z,98003.56
2022-08-11T05:47:43.267Z,98012.44
2022-08-11T05:50:13.524Z,97999.41
2022-08-11T05:52:46.996Z,98006.56
2022-08-11T05:55:17.509Z,97996.28
2022-08-11T05:57:51.148Z,98000.69
2022-08-11T06:00:19.338Z,98006.53
2022-08-11T06:02:50.096Z,98012.22
2022-08-11T06:05:19.402Z,98004.03
2022-08-11T06:07:49.538Z,98007.56
2022-08-11T06:10:29.672Z,98009.66
2022-08-11T06:12:57.960Z,98008.84
2022-08-11T06:15:25.838Z,98006.06
2022-08-11T06:17:53.029Z,98009.09
2022-08-11T06:20:20.223Z,98009.84
2022-08-11T06:22:55.112Z,98020.44
2022-08-11T06:25:23.302Z,98014.28
2022-08-11T06:27:56.416Z,98016.72
2022-08-11T06:30:34.398Z,98018.03
2022-08-11T06:33:03.081Z,98006.94
2022-08-11T06:35:38.598Z,98006.63
2022-08-11T06:38:09.304Z,98019.75
2022-08-11T06:40:41.913Z,98020.00
2022-08-11T06:43:18.070Z,98010.44
2022-08-11T06:45:53.147Z,98013.47
2022-08-11T06:48:22.699Z,98014.75
2022-08-11T06:50:52.206Z,98015.72
2022-08-11T06:53:19.987Z,98004.66
2022-08-11T06:55:57.785Z,98013.75
2022-08-11T06:58:31.250Z,98008.31
2022-08-11T07:01:00.955Z,98006.41
2022-08-11T07:03:30.882Z,98008.97
2022-08-11T07:06:06.039Z,98004.84
2022-08-11T07:08:59.852Z,98002.22
2022-08-11T07:11:59.045Z,98003.19
2022-08-11T07:14:31.228Z,98003.44
2022-08-11T07:17:01.237Z,98006.94
2022-08-11T07:19:30.438Z,98004.59
2022-08-11T07:22:01.056Z,97999.38
2022-08-11T07:24:59.737Z,97996.50
2022-08-11T07:27:25.295Z,97997.94
2022-08-11T07:29:55.716Z,98000.72
2022-08-11T07:32:37.293Z,97998.50
2022-08-11T07:35:10.258Z,97998.31
2022-08-11T07:37:37.387Z,97994.72
2022-08-11T07:40:05.210Z,97992.50
2022-08-11T07:42:34.273Z,97993.81
2022-08-11T07:45:05.544Z,97997.69
2022-08-11T07:47:34.978Z,97997.91
2022-08-11T07:50:01.770Z,97994.06
2022-08-11T07:52:30.252Z,97998.47
2022-08-11T07:54:58.793Z,97997.94
2022-08-11T07:57:57.711Z,97998.84
2022-08-11T08:00:17.447Z,97989.34
2022-08-11T08:02:44.755Z,98003.19
2022-08-11T08:05:11.677Z,97992.03
2022-08-11T08:07:38.631Z,97996.78
2022-08-11T08:10:07.734Z,97993.25
2022-08-11T08:12:35.580Z,97996.19
2022-08-11T08:15:07.537Z,97995.78
2022-08-11T08:17:36.415Z,97987.88
2022-08-11T08:20:04.098Z,98002.59
2022-08-11T08:22:38.302Z,97991.25
2022-08-11T08:25:07.227Z,97975.63
2022-08-11T08:27:35.452Z,97981.53
2022-08-11T08:30:02.547Z,97983.16
2022-08-11T08:32:30.343Z,97985.06
2022-08-11T08:34:59.405Z,97980.63
2022-08-11T08:37:46.333Z,97986.13
2022-08-11T08:40:15.633Z,97980.91
2022-08-11T08:42:49.019Z,97975.28
2022-08-11T08:45:15.979Z,97968.50
2022-08-11T08:47:47.826Z,97975.78
2022-08-11T08:50:21.629Z,97977.38
2022-08-11T08:52:58.313Z,97979.84
2022-08-11T08:55:28.483Z,97967.72
2022-08-11T08:57:56.806Z,97976.41
2022-08-11T09:00:24.023Z,97972.53
2022-08-11T09:02:51.771Z,97977.81
2022-08-11T09:05:20.437Z,97972.94
2022-08-11T09:07:54.282Z,97966.16
2022-08-11T09:10:21.519Z,97964.31
2022-08-11T09:12:49.791Z,97964.63
2022-08-11T09:15:19.861Z,97959.75
2022-08-11T09:17:48.684Z,97970.38
2022-08-11T09:20:20.292Z,97966.75
2022-08-11T09:23:03.223Z,97970.66
2022-08-11T09:25:35.841Z,97979.03
2022-08-11T09:28:03.027Z,97960.56
2022-08-11T09:30:29.933Z,97963.47
2022-08-11T09:33:01.116Z,97959.34
2022-08-11T09:35:31.481Z,97948.78
2022-08-11T09:37:59.570Z,97955.75
2022-08-11T09:40:27.297Z,97952.56
2022-08-11T09:42:55.020Z,97955.44
2022-08-11T09:45:21.975Z,97952.50
2022-08-11T09:47:48.809Z,97952.06
2022-08-11T09:50:16.182Z,97948.69
2022-08-11T09:53:09.990Z,97947.53
2022-08-11T09:55:33.026Z,97938.69
2022-08-11T09:58:00.770Z,97942.75
2022-08-11T10:00:32.793Z,97935.44
2022-08-11T10:03:00.293Z,97927.34
2022-08-11T10:05:27.376Z,97932.66
2022-08-11T10:07:56.006Z,97926.19
2022-08-11T10:10:24.209Z,97929.16
2022-08-11T10:12:58.015Z,97919.38
2022-08-11T10:15:26.284Z,97915.31
2022-08-11T10:17:56.946Z,97907.25
2022-08-11T10:20:25.821Z,97912.94
2022-08-11T10:22:52.723Z,97912.94
2022-08-11T10:25:22.011Z,97910.50
2022-08-11T10:28:30.799Z,97911.34
2022-08-11T10:30:38.163Z,97896.78
2022-08-11T10:33:09.089Z,97905.31
2022-08-11T10:35:41.149Z,97898.75
2022-08-11T10:38:09.897Z,97907.28
2022-08-11T10:40:40.513Z,97900.78
2022-08-11T10:43:08.821Z,97899.91
2022-08-11T10:45:37.096Z,97896.69
2022-08-11T10:48:06.591Z,97899.06
2022-08-11T10:50:33.499Z,97885.72
2022-08-11T10:53:01.086Z,97884.91
2022-08-11T10:55:28.333Z,97881.16
2022-08-11T10:58:04.309Z,97886.13
2022-08-11T11:00:32.615Z,97891.75
2022-08-11T11:03:05.393Z,97884.94
2022-08-11T11:06:27.361Z,97872.41
2022-08-11T11:08:38.945Z,97873.63
2022-08-11T11:11:07.135Z,97878.03
2022-08-11T11:13:37.248Z,97870.38
2022-08-11T11:16:20.626Z,97869.19
2022-08-11T11:19:00.518Z,97872.81
2022-08-11T11:21:28.502Z,97869.59
2022-08-11T11:24:09.905Z,97876.13
2022-08-11T11:26:44.534Z,97876.53
2022-08-11T11:29:24.126Z,97870.03
2022-08-11T11:32:09.089Z,97859.91
2022-08-11T11:34:55.377Z,97870.88
2022-08-11T11:37:23.177Z,97853.81
2022-08-11T11:39:50.533Z,97850.59
2022-08-11T11:42:17.849Z,97854.66
2022-08-11T11:44:46.802Z,97849.75
2022-08-11T11:47:15.571Z,97848.94
2022-08-11T11:49:43.649Z,97845.31
2022-08-11T11:52:15.082Z,97855.06
2022-08-11T11:54:42.218Z,97834.81
2022-08-11T11:57:09.230Z,97838.03
2022-08-11T11:59:35.933Z,97842.09
2022-08-11T12:02:11.703Z,97849.41
2022-08-11T12:04:41.288Z,97844.09
2022-08-11T12:07:08.927Z,97848.56
2022-08-11T12:09:36.157Z,97849.78
2022-08-11T12:12:03.368Z,97836.81
2022-08-11T12:14:30.767Z,97834.34
2022-08-11T12:16:57.622Z,97825.47
2022-08-11T12:19:27.072Z,97822.63
2022-08-11T12:21:59.448Z,97826.28
2022-08-11T12:24:29.416Z,97820.59
2022-08-11T12:27:15.342Z,97833.53
2022-08-11T12:29:45.207Z,97831.13
2022-08-11T12:32:12.137Z,97820.19
2022-08-11T12:34:40.405Z,97833.94
2022-08-11T12:37:07.956Z,97822.19
2022-08-11T12:40:16.625Z,97831.09
2022-08-11T12:42:25.390Z,97820.97
2022-08-11T12:44:57.244Z,97810.81
2022-08-11T12:47:24.476Z,97820.06
2022-08-11T12:49:54.361Z,97807.97
2022-08-11T12:52:24.038Z,97818.94
2022-08-11T12:54:58.056Z,97812.88
2022-08-11T12:57:36.860Z,97807.19
2022-08-11T13:00:06.688Z,97798.22
2022-08-11T13:02:35.713Z,97798.19
2022-08-11T13:05:05.882Z,97796.50
2022-08-11T13:07:47.701Z,97783.88
2022-08-11T13:10:20.100Z,97793.66
2022-08-11T13:12:46.869Z,97783.94
2022-08-11T13:15:16.739Z,97786.34
2022-08-11T13:17:44.512Z,97787.97
2022-08-11T13:20:13.313Z,97775.44
2022-08-11T13:22:42.126Z,97780.63
2022-08-11T13:25:09.621Z,97778.16
2022-08-11T13:27:42.411Z,97778.25
2022-08-11T13:30:09.917Z,97780.69
2022-08-11T13:32:36.521Z,97780.25
2022-08-11T13:35:03.977Z,97776.19
2022-08-11T13:38:18.872Z,97779.88
2022-08-11T13:40:33.302Z,97774.53
2022-08-11T13:43:13.270Z,97773.41
2022-08-11T13:45:40.422Z,97767.34
2022-08-11T13:48:09.209Z,97778.34
2022-08-11T13:50:36.607Z,97767.44
2022-08-11T13:53:04.673Z,97766.19
2022-08-11T13:55:33.231Z,97772.28
2022-08-11T13:58:39.955Z,97761.31
2022-08-11T14:02:03.554Z,97757.66
2022-08-11T14:04:30.134Z,97751.47
2022-08-11T14:06:46.658Z,97756.81
2022-08-11T14:09:16.445Z,97755.59
2022-08-11T14:12:23.071Z,97760.06
2022-08-11T14:14:33.421Z,97747.53
2022-08-11T14:17:05.165Z,97749.16
2022-08-11T14:19:35.580Z,97744.53
2022-08-11T14:22:07.691Z,97743.03
2022-08-11T14:24:38.477Z,97743.41
2022-08-11T14:27:06.464Z,97741.34
2022-08-11T14:29:33.660Z,97740.97
2022-08-11T14:32:14.537Z,97735.78
2022-08-11T14:34:43.803Z,97741.44
2022-08-11T14:37:12.584Z,97744.69
2022-08-11T14:39:44.039Z,97741.06
2022-08-11T14:42:14.244Z,97742.19
2022-08-11T14:44:43.883Z,97737.72
2022-08-11T14:47:24.562Z,97734.03
2022-08-11T14:49:58.088Z,97721.81
2022-08-11T14:52:36.876Z,97719.75
2022-08-11T14:55:07.340Z,97720.19
2022-08-11T14:57:55.249Z,97731.06
2022-08-11T15:00:22.593Z,97729.44
2022-08-11T15:02:49.665Z,97726.97
2022-08-11T15:05:16.407Z,97724.97
2022-08-11T15:07:43.827Z,97722.56
2022-08-11T15:10:13.494Z,97723.06
2022-08-11T15:12:41.287Z,97722.97
2022-08-11T15:15:10.053Z,97705.88
2022-08-11T15:17:43.183Z,97715.25
2022-08-11T15:20:13.562Z,97729.53
2022-08-11T15:22:41.299Z,97714.97
2022-08-11T15:25:07.997Z,97714.66
2022-08-11T15:27:38.028Z,97718.66
2022-08-11T15:30:05.907Z,97720.69
2022-08-11T15:32:33.557Z,97713.38
2022-08-11T15:35:04.006Z,97713.91
2022-08-11T15:37:31.578Z,97724.81
2022-08-11T15:40:32.214Z,97724.41
2022-08-11T15:43:04.109Z,97714.31
2022-08-11T15:45:32.187Z,97715.56
2022-08-11T15:48:05.985Z,97714.41
2022-08-11T15:50:39.872Z,97713.59
2022-08-11T15:53:12.318Z,97715.22
2022-08-11T15:55:39.669Z,97707.44
2022-08-11T15:58:09.466Z,97716.38
2022-08-11T16:00:37.886Z,97705.81
2022-08-11T16:03:07.365Z,97709.03
2022-08-11T16:05:46.428Z,97711.16
2022-08-11T16:08:16.924Z,97704.25
2022-08-11T16:10:54.921Z,97701.00
2022-08-11T16:13:25.350Z,97698.97
2022-08-11T16:15:55.358Z,97700.22
2022-08-11T16:18:24.931Z,97684.78
2022-08-11T16:20:54.993Z,97693.31
2022-08-11T16:23:23.577Z,97684.81
2022-08-11T16:27:03.990Z,97689.69
2022-08-11T16:28:41.217Z,97682.81
2022-08-11T16:31:08.644Z,97678.75
2022-08-11T16:33:50.430Z,97681.94
2022-08-11T16:36:19.866Z,97677.56
2022-08-11T16:38:46.541Z,97674.66
2022-08-11T16:41:16.197Z,97682.75
2022-08-11T16:43:46.730Z,97677.94
2022-08-11T16:46:15.961Z,97686.88
2022-08-11T16:48:45.610Z,97680.38
2022-08-11T16:51:13.315Z,97682.41
2022-08-11T16:53:47.402Z,97685.28
2022-08-11T16:56:32.506Z,97682.81
2022-08-11T16:59:05.993Z,97683.63
2022-08-11T17:01:33.053Z,97677.56
2022-08-11T17:04:07.215Z,97680.00
2022-08-11T17:06:34.650Z,97687.69
2022-08-11T17:09:03.050Z,97684.06
2022-08-11T17:11:35.749Z,97690.53
2022-08-11T17:14:11.430Z,97691.75
2022-08-11T17:16:40.824Z,97686.88
2022-08-11T17:19:11.621Z,97695.00
2022-08-11T17:21:42.686Z,97690.13
2022-08-11T17:24:12.501Z,97697.41
2022-08-11T17:26:41.758Z,97688.09
2022-08-11T17:29:10.629Z,97690.13
2022-08-11T17:31:37.242Z,97689.31
2022-08-11T17:34:06.295Z,97685.25
2022-08-11T17:36:33.873Z,97679.59
2022-08-11T17:39:00.546Z,97679.53
2022-08-11T17:41:27.150Z,97673.06
2022-08-11T17:43:55.676Z,97676.28
2022-08-11T17:46:24.308Z,97689.16
2022-08-11T17:48:51.197Z,97689.84
2022-08-11T17:51:19.668Z,97693.03
2022-08-11T17:54:10.144Z,97697.03
2022-08-11T17:56:35.619Z,97701.75
2022-08-11T17:59:04.923Z,97712.47
2022-08-11T18:01:33.757Z,97709.59
2022-08-11T18:04:02.300Z,97711.97
2022-08-11T18:06:34.544Z,97709.53
2022-08-11T18:09:03.975Z,97715.56
2022-08-11T18:12:10.608Z,97715.41
2022-08-11T18:14:20.958Z,97715.59
2022-08-11T18:16:49.093Z,97720.78
2022-08-11T18:19:15.986Z,97725.25
2022-08-11T18:21:45.067Z,97737.31
2022-08-11T18:24:32.846Z,97725.19
2022-08-11T18:27:02.412Z,97727.16
2022-08-11T18:29:41.974Z,97727.91
2022-08-11T18:32:12.191Z,97736.28
2022-08-11T18:34:50.210Z,97728.41
2022-08-11T18:37:22.872Z,97728.31
2022-08-11T18:39:58.607Z,97731.00
2022-08-11T18:42:29.545Z,97725.88
2022-08-11T18:45:00.134Z,97734.16
2022-08-11T18:47:29.981Z,97729.38
2022-08-11T18:50:05.049Z,97742.78
2022-08-11T18:52:33.989Z,97737.69
2022-08-11T18:55:02.955Z,97738.00
2022-08-11T18:57:29.727Z,97743.13
2022-08-11T19:00:02.523Z,97745.69
2022-08-11T19:02:48.304Z,97747.19
2022-08-11T19:05:18.753Z,97750.09
2022-08-11T19:08:08.482Z,97752.22
2022-08-11T19:10:35.379Z,97761.34
2022-08-11T19:13:02.357Z,97753.13
2022-08-11T19:15:29.777Z,97760.47
2022-08-11T19:17:59.134Z,97756.44
2022-08-11T19:20:28.414Z,97765.03
2022-08-11T19:22:56.928Z,97765.25
2022-08-11T19:25:26.789Z,97770.31
2022-08-11T19:27:54.896Z,97767.81
2022-08-11T19:30:21.765Z,97774.44
2022-08-11T19:32:49.495Z,97769.28
2022-08-11T19:35:20.050Z,97775.78
2022-08-11T19:37:47.746Z,97771.63
2022-08-11T19:40:15.987Z,97773.84
2022-08-11T19:42:44.773Z,97772.03
2022-08-11T19:45:11.861Z,97769.94
2022-08-11T19:47:38.612Z,97777.34
2022-08-11T19:50:06.717Z,97773.13
2022-08-11T19:52:36.111Z,97773.31
2022-08-11T19:55:03.728Z,97777.28
2022-08-11T19:57:37.099Z,97783.53
2022-08-11T20:00:08.331Z,97779.63
2022-08-11T20:02:35.163Z,97782.97
2022-08-11T20:05:02.294Z,97788.25
2022-08-11T20:07:29.950Z,97781.25
2022-08-11T20:10:05.753Z,97784.81
2022-08-11T20:12:36.171Z,97786.06
2022-08-11T20:15:04.876Z,97787.78
2022-08-11T20:17:35.661Z,97787.31
2022-08-11T20:20:05.387Z,97786.75
2022-08-11T20:22:31.925Z,97789.41
2022-08-11T20:25:01.805Z,97794.22
2022-08-11T20:27:28.338Z,97796.91
2022-08-11T20:29:56.690Z,97794.56
2022-08-11T20:32:23.450Z,97788.63
2022-08-11T20:34:50.093Z,97788.50
2022-08-11T20:37:21.274Z,97789.53
2022-08-11T20:39:51.422Z,97790.38
2022-08-11T20:42:20.251Z,97785.91
2022-08-11T20:44:48.134Z,97787.09
2022-08-11T20:47:15.607Z,97795.47
2022-08-11T20:49:48.727Z,97800.34
2022-08-11T20:52:22.954Z,97798.22
2022-08-11T20:54:50.935Z,97799.84
2022-08-11T20:57:19.548Z,97800.75
2022-08-11T20:59:52.782Z,97800.03
2022-08-11T21:02:25.813Z,97795.19
2022-08-11T21:04:55.261Z,97807.13
2022-08-11T21:07:28.786Z,97797.38
2022-08-11T21:10:00.972Z,97800.09
2022-08-11T21:12:42.059Z,97805.00
2022-08-11T21:15:11.458Z,97806.50
2022-08-11T21:17:44.825Z,97802.06
2022-08-11T21:20:27.714Z,97806.66
2022-08-11T21:23:05.356Z,97800.19
2022-08-11T21:25:37.206Z,97806.63
2022-08-11T21:28:09.109Z,97807.63
2022-08-11T21:30:36.838Z,97807.00
2022-08-11T21:33:03.858Z,97813.72
2022-08-11T21:35:30.949Z,97817.31
2022-08-11T21:37:58.779Z,97811.22
2022-08-11T21:40:27.518Z,97809.72
2022-08-11T21:42:56.820Z,97813.38
2022-08-11T21:45:26.910Z,97813.94
2022-08-11T21:48:00.888Z,97805.50
2022-08-11T21:50:28.300Z,97804.38
2022-08-11T21:52:57.574Z,97800.78
2022-08-11T21:55:25.169Z,97796.81
2022-08-11T21:57:53.548Z,97805.00
2022-08-11T22:00:20.251Z,97805.69
2022-08-11T22:02:53.321Z,97805.00
2022-08-11T22:05:21.203Z,97796.47
2022-08-11T22:07:47.844Z,97787.63
2022-08-11T22:10:36.940Z,97792.00
2022-08-11T22:13:01.196Z,97792.81
2022-08-11T22:15:27.801Z,97797.25
2022-08-11T22:17:58.012Z,97786.75
2022-08-11T22:20:26.571Z,97792.81
2022-08-11T22:22:54.389Z,97791.50
2022-08-11T22:25:22.745Z,97782.69
2022-08-11T22:27:49.884Z,97787.91
2022-08-11T22:30:16.492Z,97781.88
2022-08-11T22:32:44.067Z,97784.09
2022-08-11T22:35:13.476Z,97782.94
2022-08-11T22:37:41.116Z,97784.88
2022-08-11T22:40:09.844Z,97781.38
2022-08-11T22:42:36.483Z,97788.75
2022-08-11T22:45:04.113Z,97788.09
2022-08-11T22:47:38.466Z,97782.69
2022-08-11T22:50:08.571Z,97788.00
2022-08-11T22:52:37.345Z,97783.25
2022-08-11T22:55:05.206Z,97788.63
2022-08-11T22:57:37.073Z,97786.50
2022-08-11T23:00:05.771Z,97781.06
2022-08-11T23:02:32.573Z,97781.88
2022-08-11T23:04:59.727Z,97781.38
2022-08-11T23:07:50.171Z,97779.28
2022-08-11T23:10:18.034Z,97779.28
2022-08-11T23:12:45.485Z,97778.66
2022-08-11T23:15:14.618Z,97783.06
2022-08-11T23:17:41.469Z,97780.28
2022-08-11T23:20:30.652Z,97770.09
2022-08-11T23:22:56.969Z,97776.00
2022-08-11T23:25:27.168Z,97768.78
2022-08-11T23:27:54.642Z,97777.03
2022-08-11T23:30:21.646Z,97777.22
2022-08-11T23:32:52.472Z,97774.91
2022-08-11T23:35:38.127Z,97778.16
2022-08-11T23:38:07.427Z,97774.84
2022-08-11T23:40:37.782Z,97773.88
2022-08-11T23:43:04.959Z,97774.69
2022-08-11T23:45:32.417Z,97772.81
2022-08-11T23:48:00.531Z,97771.16
2022-08-11T23:50:27.799Z,97767.91
2022-08-11T23:52:54.594Z,97765.25
2022-08-11T23:55:21.480Z,97762.50
2022-08-11T23:57:50.031Z,97760.34
